Time;durP1;ratioP1;P1;durP2;ratioP2;P2;SDS_P1;SDS_P2;PMS_P1;PMS_P2;Temp;Humidity;BMP_temperature;BMP_pressure;BME280_temperature;BME280_humidity;BME280_pressure;Samples;Min_cycle;Max_cycle;Signal;HPM_P1;HPM_P2
2022/04/15 00:00:39;;;;;;;;;;;;;;;5.17;53.15;99149.41;4953413;29;19930;-61
2022/04/15 00:03:06;;;;;;;;;;;;;;;5.19;52.33;99139.50;4953673;29;19934;-61
2022/04/15 00:05:36;;;;;;;;;;;;;;;5.17;52.60;99147.56;4952333;29;20395;-62
2022/04/15 00:08:05;;;;;;;;;;;;;;;5.19;52.32;99147.38;4934038;29;19927;-61
2022/04/15 00:10:32;;;;;;;;;;;;;;;5.22;52.89;99142.50;4937382;29;19931;-61
2022/04/15 00:12:58;;;;;;;;;;;;;;;5.24;51.43;99134.44;4937953;29;19962;-61
2022/04/15 00:15:24;;;;;;;;;;;;;;;5.28;50.54;99127.72;4947411;29;20383;-61
2022/04/15 00:17:50;;;;;;;;;;;;;;;5.35;50.43;99139.00;4957154;29;19965;-61
2022/04/15 00:20:16;;;;;;;;;;;;;;;5.39;50.98;99132.31;4957068;29;19954;-62
2022/04/15 00:22:41;;;;;;;;;;;;;;;5.42;50.65;99133.75;4940756;29;19926;-60
2022/04/15 00:25:07;;;;;;;;;;;;;;;5.41;50.73;99127.69;4938607;29;20422;-61
2022/04/15 00:27:34;;;;;;;;;;;;;;;5.42;51.03;99131.91;4955748;29;19926;-60
2022/04/15 00:29:59;;;;;;;;;;;;;;;5.45;50.34;99126.22;4952510;29;19978;-64
2022/04/15 00:32:26;;;;;;;;;;;;;;;5.47;50.54;99126.84;4937403;29;20521;-61
2022/04/15 00:34:52;;;;;;;;;;;;;;;5.53;50.68;99124.34;4937382;29;19931;-62
2022/04/15 00:37:18;;;;;;;;;;;;;;;5.52;50.11;99139.34;4937352;29;20025;-61
2022/04/15 00:39:45;;;;;;;;;;;;;;;5.52;48.52;99131.44;4920521;29;19970;-60
2022/04/15 00:42:11;;;;;;;;;;;;;;;5.54;49.34;99129.41;4937302;29;20484;-60
2022/04/15 00:44:37;;;;;;;;;;;;;;;5.54;50.23;99129.41;4937706;29;19933;-61
2022/04/15 00:47:26;;;;;;;;;;;;;;;5.53;49.16;99129.63;4938082;29;20405;-61
2022/04/15 00:49:51;;;;;;;;;;;;;;;5.54;49.50;99128.63;4902339;29;20194;-60
2022/04/15 00:52:17;;;;;;;;;;;;;;;5.58;49.70;99127.16;4937428;29;20400;-61
2022/04/15 00:54:43;;;;;;;;;;;;;;;5.57;51.16;99126.38;4937437;29;19926;-61
2022/04/15 00:57:12;;;;;;;;;;;;;;;5.57;50.45;99123.75;4920164;29;19931;-60
2022/04/15 00:59:38;;;;;;;;;;;;;;;5.56;50.54;99123.94;4937567;29;20304;-60
2022/04/15 01:02:03;;;;;;;;;;;;;;;5.54;51.56;99134.69;4937168;29;19930;-62
2022/04/15 01:04:29;;;;;;;;;;;;;;;5.56;51.34;99126.56;4939824;29;19927;-62
2022/04/15 01:06:55;;;;;;;;;;;;;;;5.57;52.56;99130.81;4938891;29;20364;-61
2022/04/15 01:09:20;;;;;;;;;;;;;;;5.54;53.06;99126.00;4939106;29;19926;-60
2022/04/15 01:11:46;;;;;;;;;;;;;;;5.54;52.97;99128.63;4956134;29;20034;-61
2022/04/15 01:14:11;;;;;;;;;;;;;;;5.51;53.43;99132.47;4928020;29;19926;-61
2022/04/15 01:16:37;;;;;;;;;;;;;;;5.45;54.10;99128.06;4919679;29;19943;-61
2022/04/15 01:19:03;;;;;;;;;;;;;;;5.42;55.07;99124.03;4936983;29;19927;-61
2022/04/15 01:21:28;;;;;;;;;;;;;;;5.41;56.01;99118.97;4935669;29;20020;-61
2022/04/15 01:23:54;;;;;;;;;;;;;;;5.35;56.17;99119.81;4921138;29;20447;-60
2022/04/15 01:26:19;;;;;;;;;;;;;;;5.35;56.62;99119.81;4955612;29;19981;-61
2022/04/15 01:28:45;;;;;;;;;;;;;;;5.35;55.47;99114.53;4955961;29;19973;-62
2022/04/15 01:31:10;;;;;;;;;;;;;;;5.26;55.77;99118.44;4938443;29;20418;-61
2022/04/15 01:33:36;;;;;;;;;;;;;;;5.30;55.92;99117.03;4954134;29;19930;-61
2022/04/15 01:36:01;;;;;;;;;;;;;;;5.37;56.31;99110.69;4955424;29;19937;-61
2022/04/15 01:38:28;;;;;;;;;;;;;;;5.40;56.19;99114.72;4955790;29;19923;-60
2022/04/15 01:40:53;;;;;;;;;;;;;;;5.38;56.38;99111.50;4955383;29;19938;-60
2022/04/15 01:43:19;;;;;;;;;;;;;;;5.36;55.29;99109.09;4938314;29;19927;-60
2022/04/15 01:45:44;;;;;;;;;;;;;;;5.34;55.37;99102.44;4955285;29;19957;-60
2022/04/15 01:48:09;;;;;;;;;;;;;;;5.39;55.39;99105.25;4955398;29;20028;-62
2022/04/15 01:50:35;;;;;;;;;;;;;;;5.36;55.59;99098.56;4955244;29;19941;-60
2022/04/15 01:53:00;;;;;;;;;;;;;;;5.35;54.57;99093.53;4950043;29;19926;-61
2022/04/15 01:55:26;;;;;;;;;;;;;;;5.37;54.91;99094.13;4955161;29;19934;-61
2022/04/15 01:57:52;;;;;;;;;;;;;;;5.40;54.66;99089.25;4937845;29;19933;-60
2022/04/15 02:00:17;;;;;;;;;;;;;;;5.44;54.42;99095.72;4954119;29;19930;-61
2022/04/15 02:02:43;;;;;;;;;;;;;;;5.44;54.92;99100.13;4954273;29;19972;-61
2022/04/15 02:05:08;;;;;;;;;;;;;;;5.40;54.61;99097.13;4955259;29;19926;-62
2022/04/15 02:07:34;;;;;;;;;;;;;;;5.41;54.71;99096.13;4937644;29;19934;-60
2022/04/15 02:10:00;;;;;;;;;;;;;;;5.41;54.49;99092.69;4955090;29;19931;-62
2022/04/15 02:12:25;;;;;;;;;;;;;;;5.41;54.81;99090.88;4935726;29;19935;-61
2022/04/15 02:14:51;;;;;;;;;;;;;;;5.41;55.13;99082.16;4954954;29;19930;-62
2022/04/15 02:17:17;;;;;;;;;;;;;;;5.43;55.19;99086.19;4954909;29;19927;-60
2022/04/15 02:19:42;;;;;;;;;;;;;;;5.37;54.88;99094.13;4952634;29;19930;-60
2022/04/15 02:22:08;;;;;;;;;;;;;;;5.40;55.40;99091.06;4935519;29;19930;-61
2022/04/15 02:24:33;;;;;;;;;;;;;;;5.38;55.09;99086.03;4935962;29;19927;-60
2022/04/15 02:26:59;;;;;;;;;;;;;;;5.41;55.58;99087.41;4935682;29;19930;-60
2022/04/15 02:29:24;;;;;;;;;;;;;;;5.39;53.60;99092.91;4935873;29;20037;-62
2022/04/15 02:31:50;;;;;;;;;;;;;;;5.42;54.53;99099.56;4935881;29;20320;-60
2022/04/15 02:34:15;;;;;;;;;;;;;;;5.40;54.38;99093.69;4935656;29;20041;-60
2022/04/15 02:36:41;;;;;;;;;;;;;;;5.41;54.26;99093.50;4934315;29;19993;-61
2022/04/15 02:39:10;;;;;;;;;;;;;;;5.40;55.51;99089.25;4935538;29;20368;-61
2022/04/15 02:41:36;;;;;;;;;;;;;;;5.43;56.25;99088.81;4954543;29;19930;-61
2022/04/15 02:44:01;;;;;;;;;;;;;;;5.45;55.61;99086.00;4954365;29;20412;-60
2022/04/15 02:46:27;;;;;;;;;;;;;;;5.48;55.39;99093.47;4954486;29;20009;-61
2022/04/15 02:48:52;;;;;;;;;;;;;;;5.56;55.71;99089.75;4921402;29;20324;-61
2022/04/15 02:51:18;;;;;;;;;;;;;;;5.58;55.14;99093.78;4942841;29;19998;-61
2022/04/15 02:53:43;;;;;;;;;;;;;;;5.63;56.07;99093.97;4918179;29;19931;-61
2022/04/15 02:56:09;;;;;;;;;;;;;;;5.63;56.03;99095.78;4934837;29;20033;-61
2022/04/15 02:58:34;;;;;;;;;;;;;;;5.65;56.03;99097.19;4935109;29;19974;-61
2022/04/15 03:01:01;;;;;;;;;;;;;;;5.63;56.67;99095.78;4953504;29;19977;-61
2022/04/15 03:03:27;;;;;;;;;;;;;;;5.60;56.64;99088.34;4954171;29;19940;-62
2022/04/15 03:05:53;;;;;;;;;;;;;;;5.62;56.70;99092.38;4953871;29;20438;-61
2022/04/15 03:08:18;;;;;;;;;;;;;;;5.62;56.25;99084.47;4954074;29;19926;-61
2022/04/15 03:10:44;;;;;;;;;;;;;;;5.61;55.76;99082.03;4943175;29;20037;-62
2022/04/15 03:13:10;;;;;;;;;;;;;;;5.59;55.23;99081.44;4933394;29;19926;-61
2022/04/15 03:15:37;;;;;;;;;;;;;;;5.60;54.01;99081.25;4934674;29;19931;-61
2022/04/15 03:18:02;;;;;;;;;;;;;;;5.64;55.81;99082.41;4933567;29;20369;-61
2022/04/15 03:20:28;;;;;;;;;;;;;;;5.62;55.28;99084.47;4952803;29;19981;-61
2022/04/15 03:22:54;;;;;;;;;;;;;;;5.69;55.38;99082.59;4953730;29;19989;-60
2022/04/15 03:25:19;;;;;;;;;;;;;;;5.76;55.39;99087.00;4953735;29;19934;-63
2022/04/15 03:27:45;;;;;;;;;;;;;;;5.81;54.97;99080.09;4953820;29;19926;-61
2022/04/15 03:30:11;;;;;;;;;;;;;;;5.87;55.21;99078.44;4934436;29;20482;-63
2022/04/15 03:32:46;;;;;;;;;;;;;;;5.89;55.54;99077.19;4953422;29;20028;-61
2022/04/15 03:35:12;;;;;;;;;;;;;;;5.96;55.18;99079.78;4953637;29;19957;-62
2022/04/15 03:37:38;;;;;;;;;;;;;;;5.97;54.09;99073.53;4953435;29;20428;-62
2022/04/15 03:40:05;;;;;;;;;;;;;;;6.03;53.41;99072.69;4935199;29;19930;-62
2022/04/15 03:42:30;;;;;;;;;;;;;;;6.18;53.91;99076.78;4933032;29;19981;-61
2022/04/15 03:44:56;;;;;;;;;;;;;;;6.29;53.54;99081.34;4935789;29;19935;-61
2022/04/15 03:47:22;;;;;;;;;;;;;;;6.29;53.92;99074.25;4921171;29;19929;-61
2022/04/15 03:49:48;;;;;;;;;;;;;;;6.44;53.69;99076.56;4941522;29;19930;-61
2022/04/15 03:52:13;;;;;;;;;;;;;;;6.59;53.20;99076.19;4957508;29;19930;-61
2022/04/15 03:54:39;;;;;;;;;;;;;;;6.77;52.47;99076.19;4957693;29;20058;-60
2022/04/15 03:57:04;;;;;;;;;;;;;;;6.96;52.00;99081.44;4957119;29;20297;-61
2022/04/15 03:59:30;;;;;;;;;;;;;;;7.07;52.34;99070.16;4939729;29;19933;-61
2022/04/15 04:01:55;;;;;;;;;;;;;;;7.18;52.24;99069.44;4938006;29;20627;-61
2022/04/15 04:04:21;;;;;;;;;;;;;;;7.22;52.74;99065.31;4938302;29;19974;-61
2022/04/15 04:06:46;;;;;;;;;;;;;;;7.28;53.23;99067.03;4938141;29;20025;-60
2022/04/15 04:09:12;;;;;;;;;;;;;;;7.34;53.36;99073.25;4946473;29;19989;-61
2022/04/15 04:11:37;;;;;;;;;;;;;;;7.35;52.89;99069.59;4957193;29;20442;-61
2022/04/15 04:14:03;;;;;;;;;;;;;;;7.42;52.85;99067.69;4957207;29;19926;-60
2022/04/15 04:16:28;;;;;;;;;;;;;;;7.49;53.14;99063.09;4956754;29;19931;-60
2022/04/15 04:18:53;;;;;;;;;;;;;;;7.62;52.47;99056.03;4939780;29;19926;-61
2022/04/15 04:21:20;;;;;;;;;;;;;;;7.69;52.12;99054.09;4937642;29;19930;-61
2022/04/15 04:23:46;;;;;;;;;;;;;;;7.78;51.53;99058.00;4937890;29;19969;-61
2022/04/15 04:26:11;;;;;;;;;;;;;;;7.88;50.95;99053.00;4937564;29;19966;-62
2022/04/15 04:28:37;;;;;;;;;;;;;;;7.95;51.74;99058.97;4938516;29;20022;-61
2022/04/15 04:31:02;;;;;;;;;;;;;;;8.01;51.37;99057.25;4937500;29;20357;-60
2022/04/15 04:33:28;;;;;;;;;;;;;;;8.02;51.24;99053.56;4920302;29;19926;-61
2022/04/15 04:35:53;;;;;;;;;;;;;;;8.14;51.00;99059.66;4936207;29;19930;-61
2022/04/15 04:38:19;;;;;;;;;;;;;;;8.27;49.89;99060.47;4938569;29;20069;-59
2022/04/15 04:40:45;;;;;;;;;;;;;;;8.35;49.33;99049.53;4936151;29;19985;-59
2022/04/15 04:43:10;;;;;;;;;;;;;;;8.47;49.60;99055.66;4937402;29;19931;-61
2022/04/15 04:45:36;;;;;;;;;;;;;;;8.58;49.68;99056.66;4920177;29;19935;-61
2022/04/15 04:48:02;;;;;;;;;;;;;;;8.66;49.13;99048.38;4937916;29;19923;-60
2022/04/15 04:50:28;;;;;;;;;;;;;;;8.74;48.67;99055.16;4937403;29;19958;-60
2022/04/15 04:52:54;;;;;;;;;;;;;;;8.84;49.06;99058.00;4937201;29;20043;-61
2022/04/15 04:55:19;;;;;;;;;;;;;;;8.82;48.64;99063.53;4936615;29;20489;-61
2022/04/15 04:57:45;;;;;;;;;;;;;;;8.79;48.35;99061.34;4950204;29;19933;-63
2022/04/15 05:00:11;;;;;;;;;;;;;;;8.78;48.15;99061.59;4938918;29;19931;-62
2022/04/15 05:02:37;;;;;;;;;;;;;;;8.86;46.89;99061.22;4955941;29;19957;-58
2022/04/15 05:05:03;;;;;;;;;;;;;;;8.91;46.94;99061.31;4952962;29;19931;-60
2022/04/15 05:07:29;;;;;;;;;;;;;;;8.87;47.61;99057.53;4937332;29;20308;-63
2022/04/15 05:09:54;;;;;;;;;;;;;;;8.86;47.16;99059.38;4955824;29;19931;-61
2022/04/15 05:12:20;;;;;;;;;;;;;;;8.80;47.28;99057.66;4955713;29;19930;-61
2022/04/15 05:14:45;;;;;;;;;;;;;;;8.85;46.71;99060.44;4945489;28;20098;-60
2022/04/15 05:17:11;;;;;;;;;;;;;;;8.90;46.87;99050.97;4920290;29;19931;-61
2022/04/15 05:19:36;;;;;;;;;;;;;;;8.88;45.51;99056.50;4936414;29;19938;-60
2022/04/15 05:22:02;;;;;;;;;;;;;;;8.93;45.48;99047.88;4936942;29;20502;-63
2022/04/15 05:24:28;;;;;;;;;;;;;;;9.00;45.11;99045.88;4936813;29;20026;-62
2022/04/15 05:26:53;;;;;;;;;;;;;;;9.14;44.88;99054.34;4920142;29;19935;-61
2022/04/15 05:29:19;;;;;;;;;;;;;;;9.19;44.60;99038.59;4936801;29;19981;-61
2022/04/15 05:31:44;;;;;;;;;;;;;;;9.28;44.81;99045.88;4936201;29;19935;-61
2022/04/15 05:34:10;;;;;;;;;;;;;;;9.45;43.62;99045.13;4937075;29;19934;-61
2022/04/15 05:36:35;;;;;;;;;;;;;;;9.60;42.81;99047.25;4936268;29;20448;-61
2022/04/15 05:39:01;;;;;;;;;;;;;;;9.68;43.54;99042.34;4919320;29;19926;-61
2022/04/15 05:41:27;;;;;;;;;;;;;;;9.82;42.48;99042.81;4936113;29;20416;-61
2022/04/15 05:43:52;;;;;;;;;;;;;;;9.98;42.01;99052.63;4931184;29;19958;-60
2022/04/15 05:46:19;;;;;;;;;;;;;;;10.12;41.70;99045.16;4932347;29;20373;-62
2022/04/15 05:48:44;;;;;;;;;;;;;;;10.10;42.37;99047.25;4933023;29;19937;-62
2022/04/15 05:51:10;;;;;;;;;;;;;;;10.21;41.43;99054.28;4935220;29;19930;-61
2022/04/15 05:53:35;;;;;;;;;;;;;;;10.32;41.56;99047.31;4940185;29;19931;-61
2022/04/15 05:56:01;;;;;;;;;;;;;;;10.44;40.84;99037.44;4932700;29;20843;-60
2022/04/15 05:58:27;;;;;;;;;;;;;;;10.53;40.85;99044.94;4948030;29;19942;-61
2022/04/15 06:00:52;;;;;;;;;;;;;;;10.64;39.70;99038.72;4951507;29;19930;-62
2022/04/15 06:03:22;;;;;;;;;;;;;;;10.79;38.80;99040.75;4951508;29;20323;-62
2022/04/15 06:05:51;;;;;;;;;;;;;;;10.95;39.65;99037.25;4952190;28;19930;-60
2022/04/15 06:08:17;;;;;;;;;;;;;;;11.08;39.60;99036.06;4920727;29;19937;-61
2022/04/15 06:10:42;;;;;;;;;;;;;;;11.24;39.56;99037.81;4934522;29;20230;-61
2022/04/15 06:13:14;;;;;;;;;;;;;;;11.35;39.10;99031.56;4933581;29;20352;-60
2022/04/15 06:15:51;;;;;;;;;;;;;;;11.37;38.89;99039.28;4939603;29;19985;-63
2022/04/15 06:18:17;;;;;;;;;;;;;;;11.46;39.30;99040.41;4938199;29;20367;-61
2022/04/15 06:20:43;;;;;;;;;;;;;;;11.57;38.58;99030.69;4915567;29;19931;-60
2022/04/15 06:23:08;;;;;;;;;;;;;;;11.59;38.57;99029.41;4917678;29;19926;-61
2022/04/15 06:25:34;;;;;;;;;;;;;;;11.71;39.14;99031.09;4935774;29;19980;-61
2022/04/15 06:27:59;;;;;;;;;;;;;;;11.83;38.66;99039.69;4943030;29;19926;-61
2022/04/15 06:30:25;;;;;;;;;;;;;;;11.88;38.50;99029.09;4934488;29;19937;-61
2022/04/15 06:32:51;;;;;;;;;;;;;;;11.90;38.07;99039.50;4934255;29;19974;-61
2022/04/15 06:35:17;;;;;;;;;;;;;;;11.96;37.03;99031.28;4935388;29;20032;-60
2022/04/15 06:37:42;;;;;;;;;;;;;;;11.99;37.49;99027.34;4933607;29;20027;-61
2022/04/15 06:40:08;;;;;;;;;;;;;;;12.12;37.25;99031.41;4933642;29;19946;-61
2022/04/15 06:42:34;;;;;;;;;;;;;;;12.02;37.07;99030.28;4949347;29;20057;-60
2022/04/15 06:45:01;;;;;;;;;;;;;;;12.11;36.94;99030.59;4930387;29;19930;-62
2022/04/15 06:47:26;;;;;;;;;;;;;;;12.30;36.86;99033.66;4931098;29;19985;-61
2022/04/15 06:49:52;;;;;;;;;;;;;;;12.49;36.48;99028.69;4933467;29;19974;-62
2022/04/15 06:52:20;;;;;;;;;;;;;;;12.58;35.90;99029.00;4934232;29;19933;-60
2022/04/15 06:54:46;;;;;;;;;;;;;;;12.68;35.45;99024.53;4932193;29;19930;-61
2022/04/15 06:57:12;;;;;;;;;;;;;;;12.60;35.34;99018.91;4923854;29;20411;-60
2022/04/15 06:59:37;;;;;;;;;;;;;;;12.61;35.67;99013.31;4931398;29;19926;-60
2022/04/15 07:02:03;;;;;;;;;;;;;;;12.71;35.40;99015.25;4949545;29;19931;-60
2022/04/15 07:04:29;;;;;;;;;;;;;;;12.82;35.17;99014.19;4950884;29;19995;-60
2022/04/15 07:06:55;;;;;;;;;;;;;;;12.91;34.70;99014.50;4931366;29;19930;-60
2022/04/15 07:09:20;;;;;;;;;;;;;;;12.86;34.88;99006.53;4949536;29;20308;-60
2022/04/15 07:11:46;;;;;;;;;;;;;;;12.88;34.27;99012.34;4949898;29;19934;-60
2022/04/15 07:14:11;;;;;;;;;;;;;;;12.82;34.37;99005.44;4950732;29;20338;-61
2022/04/15 07:16:37;;;;;;;;;;;;;;;12.76;34.01;99006.47;4920139;29;19931;-59
2022/04/15 07:19:04;;;;;;;;;;;;;;;12.77;33.84;99013.41;4917107;29;19927;-61
2022/04/15 07:21:32;;;;;;;;;;;;;;;12.68;33.62;98999.81;4941281;29;19950;-59
2022/04/15 07:24:02;;;;;;;;;;;;;;;12.64;33.71;99002.16;4904115;29;19936;-59
2022/04/15 07:26:28;;;;;;;;;;;;;;;12.66;33.53;99002.72;4953042;29;20013;-61
2022/04/15 07:28:53;;;;;;;;;;;;;;;12.88;33.94;98997.22;4952978;29;20029;-60
2022/04/15 07:31:18;;;;;;;;;;;;;;;13.09;33.88;98991.94;4952894;29;19989;-59
2022/04/15 07:33:46;;;;;;;;;;;;;;;13.27;33.35;99001.31;4935942;29;19938;-60
2022/04/15 07:38:56;;;;;;;;;;;;;;;13.32;32.25;98988.78;4953461;29;20012;-59
2022/04/15 07:41:22;;;;;;;;;;;;;;;13.39;31.45;98984.03;4953162;29;20417;-59
2022/04/15 07:43:48;;;;;;;;;;;;;;;13.39;31.75;98985.91;4935924;29;19941;-59
2022/04/15 07:46:14;;;;;;;;;;;;;;;13.39;31.37;98981.38;4952989;29;19938;-59
2022/04/15 07:48:40;;;;;;;;;;;;;;;13.45;32.22;98986.69;4953301;29;19927;-58
2022/04/15 07:51:05;;;;;;;;;;;;;;;13.35;31.37;98987.47;4953072;29;19937;-58
2022/04/15 07:53:31;;;;;;;;;;;;;;;13.46;31.35;98981.09;4953057;29;19945;-60
2022/04/15 07:55:56;;;;;;;;;;;;;;;13.29;31.38;98978.69;4936061;29;19935;-59
2022/04/15 07:58:22;;;;;;;;;;;;;;;13.45;31.24;98986.69;4952969;29;19927;-58
2022/04/15 08:00:47;;;;;;;;;;;;;;;13.45;30.50;98976.06;4952664;29;19931;-59
2022/04/15 08:03:13;;;;;;;;;;;;;;;13.55;30.59;98976.84;4952935;29;19926;-60
2022/04/15 08:05:38;;;;;;;;;;;;;;;13.72;31.12;98976.56;4953101;29;20320;-57
2022/04/15 08:08:04;;;;;;;;;;;;;;;13.88;31.14;98976.53;4951471;29;19932;-60
2022/04/15 08:10:29;;;;;;;;;;;;;;;13.97;30.64;98977.59;4953116;29;19981;-64
2022/04/15 08:12:55;;;;;;;;;;;;;;;13.89;30.97;98973.63;4952919;29;19956;-62
2022/04/15 08:15:21;;;;;;;;;;;;;;;13.84;30.56;98970.97;4935646;29;19948;-64
2022/04/15 08:17:46;;;;;;;;;;;;;;;13.87;30.30;98970.41;4952726;29;19942;-65
2022/04/15 08:20:13;;;;;;;;;;;;;;;14.05;30.61;98975.19;4952683;29;19930;-62
2022/04/15 08:22:38;;;;;;;;;;;;;;;14.16;30.76;98977.84;4952523;29;20425;-65
2022/04/15 08:25:04;;;;;;;;;;;;;;;14.07;30.92;98974.91;4952897;29;19935;-66
2022/04/15 08:27:30;;;;;;;;;;;;;;;13.86;30.60;98971.50;4952669;29;20415;-64
2022/04/15 08:29:56;;;;;;;;;;;;;;;13.73;31.86;98975.50;4953490;28;19934;-64
2022/04/15 08:32:21;;;;;;;;;;;;;;;13.61;31.46;98970.44;4956106;29;19922;-63
2022/04/15 08:34:47;;;;;;;;;;;;;;;13.69;31.26;98966.44;4939098;29;19926;-64
2022/04/15 08:37:13;;;;;;;;;;;;;;;13.73;31.52;98975.50;4938593;29;19938;-62
2022/04/15 08:39:39;;;;;;;;;;;;;;;13.75;31.35;98968.03;4956501;29;20024;-60
2022/04/15 08:42:06;;;;;;;;;;;;;;;13.60;31.35;98973.38;4956112;29;20349;-62
2022/04/15 08:44:32;;;;;;;;;;;;;;;13.63;31.55;98963.00;4956510;29;20592;-60
2022/04/15 08:46:58;;;;;;;;;;;;;;;13.58;31.89;98970.19;4955879;29;19931;-61
2022/04/15 08:49:24;;;;;;;;;;;;;;;13.71;31.76;98960.88;4956295;29;19934;-60
2022/04/15 08:51:53;;;;;;;;;;;;;;;13.89;31.86;98965.63;4955796;29;19930;-61
2022/04/15 08:54:18;;;;;;;;;;;;;;;13.82;31.43;98968.56;4955997;29;20368;-61
2022/04/15 08:56:44;;;;;;;;;;;;;;;13.77;31.55;98965.13;4938392;29;19981;-63
2022/04/15 08:59:10;;;;;;;;;;;;;;;13.87;31.07;98967.75;4956031;29;19933;-64
2022/04/15 09:01:35;;;;;;;;;;;;;;;14.02;30.85;98959.72;4938877;29;19993;-63
2022/04/15 09:04:01;;;;;;;;;;;;;;;14.17;31.42;98971.41;4922715;29;19926;-64
2022/04/15 09:06:33;;;;;;;;;;;;;;;14.25;31.18;98969.00;4938787;29;19934;-63
2022/04/15 09:08:59;;;;;;;;;;;;;;;14.18;31.68;98960.50;4955971;29;19933;-63
2022/04/15 09:11:31;;;;;;;;;;;;;;;14.19;31.54;98967.41;4955435;29;19939;-64
2022/04/15 09:13:57;;;;;;;;;;;;;;;14.23;31.49;98965.78;4955602;29;19937;-63
2022/04/15 09:16:23;;;;;;;;;;;;;;;14.21;32.12;98964.50;4955565;29;20036;-64
2022/04/15 09:18:49;;;;;;;;;;;;;;;14.20;32.16;98963.66;4955955;29;19933;-64
2022/04/15 09:21:21;;;;;;;;;;;;;;;14.19;31.78;98962.09;4938448;29;19930;-63
2022/04/15 09:23:47;;;;;;;;;;;;;;;13.80;32.66;98962.72;4938398;29;19930;-64
2022/04/15 09:26:14;;;;;;;;;;;;;;;13.71;33.21;98966.19;4955587;29;20332;-63
2022/04/15 09:28:39;;;;;;;;;;;;;;;13.80;33.36;98968.03;4955442;29;19932;-64
2022/04/15 09:31:05;;;;;;;;;;;;;;;13.88;33.18;98964.00;4937464;29;19930;-65
2022/04/15 09:33:31;;;;;;;;;;;;;;;13.89;33.01;98962.97;4937871;29;19927;-65
2022/04/15 09:35:56;;;;;;;;;;;;;;;14.12;32.99;98966.91;4955029;29;19940;-66
2022/04/15 09:38:44;;;;;;;;;;;;;;;14.19;32.82;98962.09;4955251;29;19926;-64
2022/04/15 09:41:23;;;;;;;;;;;;;;;13.99;33.28;98959.47;4936968;29;20073;-65
2022/04/15 09:43:55;;;;;;;;;;;;;;;13.64;33.71;98961.91;4937836;29;19952;-64
2022/04/15 09:46:20;;;;;;;;;;;;;;;13.73;34.37;98962.16;4954135;29;19952;-63
2022/04/15 09:49:02;;;;;;;;;;;;;;;13.71;34.19;98956.34;4955348;29;20566;-63
2022/04/15 09:51:29;;;;;;;;;;;;;;;13.75;34.64;98961.91;4937804;29;19930;-63
2022/04/15 09:53:58;;;;;;;;;;;;;;;13.63;34.59;98968.31;4955336;29;20396;-64
2022/04/15 09:56:24;;;;;;;;;;;;;;;13.60;34.89;98968.06;4955134;29;19934;-63
2022/04/15 09:58:51;;;;;;;;;;;;;;;13.56;34.68;98961.66;4937555;29;20395;-64
2022/04/15 10:01:17;;;;;;;;;;;;;;;13.33;34.79;98965.66;4953609;29;20009;-65
2022/04/15 10:03:44;;;;;;;;;;;;;;;13.16;35.41;98968.53;4954842;29;20392;-64
2022/04/15 10:06:10;;;;;;;;;;;;;;;13.02;36.43;98960.25;4938157;29;19973;-65
2022/04/15 10:08:36;;;;;;;;;;;;;;;13.02;36.16;98970.09;4937777;29;20576;-64
2022/04/15 10:11:01;;;;;;;;;;;;;;;12.96;36.42;98967.44;4953469;29;19934;-64
2022/04/15 10:13:28;;;;;;;;;;;;;;;13.09;36.43;98970.66;4954557;29;20466;-65
2022/04/15 10:15:54;;;;;;;;;;;;;;;13.02;36.16;98975.44;4954888;29;19930;-64
2022/04/15 10:18:20;;;;;;;;;;;;;;;12.99;36.22;98973.28;4921737;29;20376;-64
2022/04/15 10:20:45;;;;;;;;;;;;;;;12.84;36.78;98974.84;4937471;29;19980;-65
2022/04/15 10:23:11;;;;;;;;;;;;;;;12.71;36.88;98965.50;4954517;29;20237;-66
2022/04/15 10:25:37;;;;;;;;;;;;;;;12.56;38.16;98970.78;4926343;29;20343;-64
2022/04/15 10:28:13;;;;;;;;;;;;;;;12.53;38.34;98976.63;4952732;29;20285;-64
2022/04/15 10:30:39;;;;;;;;;;;;;;;12.64;38.26;98969.47;4954311;29;20353;-64
2022/04/15 10:33:05;;;;;;;;;;;;;;;12.83;38.40;98975.13;4935573;29;20017;-66
2022/04/15 10:35:34;;;;;;;;;;;;;;;12.79;38.19;98972.16;4937150;29;20021;-65
2022/04/15 10:38:01;;;;;;;;;;;;;;;12.73;38.77;98968.72;4954352;29;19927;-66
2022/04/15 10:40:33;;;;;;;;;;;;;;;12.85;38.45;98963.16;4952376;29;19973;-64
2022/04/15 10:43:04;;;;;;;;;;;;;;;12.94;38.33;98968.75;4954247;29;19948;-66
2022/04/15 10:45:34;;;;;;;;;;;;;;;13.04;38.44;98968.00;4954497;29;19985;-66
2022/04/15 10:48:00;;;;;;;;;;;;;;;12.94;38.65;98953.59;4947122;29;21062;-66
2022/04/15 10:50:26;;;;;;;;;;;;;;;12.86;38.83;98972.72;4923167;29;20452;-63
2022/04/15 10:52:52;;;;;;;;;;;;;;;12.83;39.23;98972.47;4932125;29;19984;-63
2022/04/15 10:55:17;;;;;;;;;;;;;;;12.81;39.40;98964.75;4945787;29;20361;-62
2022/04/15 10:57:48;;;;;;;;;;;;;;;12.75;40.14;98965.78;4950554;29;19926;-62
2022/04/15 11:03:22;;;;;;;;;;;;;;;12.06;42.39;98958.84;4948027;28;19978;-63
2022/04/15 11:05:48;;;;;;;;;;;;;;;11.93;42.44;98962.75;4916317;29;20017;-64
2022/04/15 11:08:14;;;;;;;;;;;;;;;11.81;42.77;98957.59;4933336;29;20082;-63
2022/04/15 11:10:42;;;;;;;;;;;;;;;11.85;42.63;98959.75;4932851;29;19931;-63
2022/04/15 11:13:32;;;;;;;;;;;;;;;11.86;43.34;98953.44;4913628;29;19971;-65
2022/04/15 11:16:21;;;;;;;;;;;;;;;11.99;43.13;98955.63;4932166;29;19931;-64
2022/04/15 11:18:50;;;;;;;;;;;;;;;11.86;43.67;98953.44;4934928;29;19931;-63
2022/04/15 11:21:19;;;;;;;;;;;;;;;11.75;43.72;98952.50;4933335;29;19937;-64
2022/04/15 11:23:47;;;;;;;;;;;;;;;11.71;44.26;98960.19;4915431;29;19980;-63
2022/04/15 11:26:13;;;;;;;;;;;;;;;11.69;43.67;98948.22;4934582;28;19930;-64
2022/04/15 11:28:39;;;;;;;;;;;;;;;11.62;44.21;98943.16;4950109;29;20346;-63
2022/04/15 11:31:18;;;;;;;;;;;;;;;11.51;44.90;98942.25;4935447;29;19931;-62
2022/04/15 11:33:44;;;;;;;;;;;;;;;11.46;43.94;98944.06;4950584;28;20649;-63
2022/04/15 11:36:09;;;;;;;;;;;;;;;11.37;44.76;98930.47;4933325;29;19986;-63
2022/04/15 11:38:35;;;;;;;;;;;;;;;11.46;44.52;98926.28;4931067;29;19934;-62
2022/04/15 11:41:00;;;;;;;;;;;;;;;11.55;44.45;98923.97;4930878;29;19950;-62
2022/04/15 11:43:26;;;;;;;;;;;;;;;11.63;44.06;98928.00;4932248;29;19950;-62
2022/04/15 11:45:51;;;;;;;;;;;;;;;11.64;43.95;98924.28;4931604;29;20186;-61
2022/04/15 11:48:18;;;;;;;;;;;;;;;11.64;44.14;98918.97;4930168;29;19933;-61
2022/04/15 11:50:43;;;;;;;;;;;;;;;11.79;43.38;98924.38;4928906;29;20033;-62
2022/04/15 11:53:09;;;;;;;;;;;;;;;11.93;42.95;98914.94;4932748;29;20455;-62
2022/04/15 11:55:54;;;;;;;;;;;;;;;12.11;42.42;98910.25;4918470;29;19931;-62
2022/04/15 11:58:21;;;;;;;;;;;;;;;12.20;42.68;98912.16;4948685;29;19973;-62
2022/04/15 12:00:50;;;;;;;;;;;;;;;12.17;43.11;98909.22;4936908;29;19978;-63
2022/04/15 12:03:16;;;;;;;;;;;;;;;12.14;42.95;98910.53;4927392;29;20464;-62
2022/04/15 12:05:41;;;;;;;;;;;;;;;12.10;43.42;98895.38;4952626;28;20037;-62
2022/04/15 12:08:10;;;;;;;;;;;;;;;12.00;43.75;98902.25;4954329;29;20388;-63
2022/04/15 12:10:39;;;;;;;;;;;;;;;11.77;44.58;98897.31;4949821;29;19937;-62
2022/04/15 12:13:06;;;;;;;;;;;;;;;11.77;44.25;98881.38;4934641;29;20204;-62
2022/04/15 12:15:33;;;;;;;;;;;;;;;11.85;44.30;98885.38;4934942;29;19938;-62
2022/04/15 12:17:58;;;;;;;;;;;;;;;11.83;44.43;98878.47;4936786;29;19927;-62
2022/04/15 12:20:24;;;;;;;;;;;;;;;11.91;44.17;98881.72;4935191;29;20341;-62
2022/04/15 12:22:49;;;;;;;;;;;;;;;11.65;45.30;98876.25;4917997;29;20289;-63
2022/04/15 12:25:15;;;;;;;;;;;;;;;11.78;44.86;98882.97;4934598;29;19978;-63
2022/04/15 12:27:44;;;;;;;;;;;;;;;11.75;44.46;98871.00;4933392;29;19926;-61
2022/04/15 12:30:10;;;;;;;;;;;;;;;11.80;44.95;98875.56;4936022;29;20320;-63
2022/04/15 12:32:36;;;;;;;;;;;;;;;11.66;44.87;98866.44;4917369;29;19934;-61
2022/04/15 12:35:02;;;;;;;;;;;;;;;11.63;45.12;98866.94;4942657;29;19930;-66
2022/04/15 12:37:37;;;;;;;;;;;;;;;11.46;45.21;98870.56;4953362;29;20375;-61
2022/04/15 12:40:14;;;;;;;;;;;;;;;11.32;45.68;98864.09;4921399;29;19985;-63
2022/04/15 12:42:41;;;;;;;;;;;;;;;11.39;45.55;98867.34;4954090;29;19927;-63
2022/04/15 12:45:17;;;;;;;;;;;;;;;11.24;46.20;98859.28;4950296;29;20000;-62
2022/04/15 12:47:43;;;;;;;;;;;;;;;11.09;46.80;98860.75;4918681;29;19922;-63
2022/04/15 12:50:20;;;;;;;;;;;;;;;11.03;46.91;98859.13;4950938;29;20355;-63
2022/04/15 12:52:46;;;;;;;;;;;;;;;10.95;48.00;98862.22;4952339;29;19926;-63